createdAt,value
2018-08-23T00:00:18.187Z,16.80
2018-08-23T00:05:09.234Z,16.70
2018-08-23T00:10:00.901Z,16.60
2018-08-23T00:14:51.817Z,16.60
2018-08-23T00:19:42.735Z,16.50
2018-08-23T00:24:33.651Z,16.50
2018-08-23T00:29:24.573Z,16.40
2018-08-23T00:34:15.487Z,16.40
2018-08-23T00:39:06.470Z,16.30
2018-08-23T00:43:57.389Z,16.30
2018-08-23T00:48:48.284Z,16.20
2018-08-23T00:53:39.172Z,16.20
2018-08-23T00:58:30.070Z,16.10
2018-08-23T01:03:20.991Z,16.10
2018-08-23T01:08:11.954Z,16.00
2018-08-23T01:13:02.879Z,16.00
2018-08-23T01:17:53.780Z,16.00
2018-08-23T01:22:44.664Z,15.90
2018-08-23T01:27:35.548Z,15.90
2018-08-23T01:32:26.447Z,15.80
2018-08-23T01:37:17.375Z,15.70
2018-08-23T01:42:08.287Z,15.70
2018-08-23T01:46:59.229Z,15.70
2018-08-23T01:51:51.616Z,15.60
2018-08-23T01:56:42.520Z,15.60
2018-08-23T02:01:34.200Z,15.50
2018-08-23T02:06:25.103Z,15.50
2018-08-23T02:11:15.988Z,15.50
2018-08-23T02:16:07.696Z,15.40
2018-08-23T02:20:58.597Z,15.40
2018-08-23T02:25:49.505Z,15.40
2018-08-23T02:30:40.438Z,15.40
2018-08-23T02:35:31.430Z,15.30
2018-08-23T02:40:22.333Z,15.30
2018-08-23T02:45:13.299Z,15.20
2018-08-23T02:50:04.236Z,15.20
2018-08-23T02:54:55.903Z,15.20
2018-08-23T02:59:47.553Z,15.10
2018-08-23T03:04:38.456Z,15.10
2018-08-23T03:09:30.098Z,15.10
2018-08-23T03:14:20.996Z,15.00
2018-08-23T03:19:11.895Z,15.00
2018-08-23T03:24:02.802Z,15.00
2018-08-23T03:28:53.743Z,15.00
2018-08-23T03:33:44.627Z,15.00
2018-08-23T03:38:35.549Z,15.00
2018-08-23T03:43:26.472Z,14.90
2018-08-23T03:48:17.368Z,14.90
2018-08-23T03:53:08.308Z,14.90
2018-08-23T03:57:59.257Z,14.90
2018-08-23T04:02:50.904Z,14.80
2018-08-23T04:07:42.599Z,14.80
2018-08-23T04:12:33.487Z,14.80
2018-08-23T04:17:24.494Z,14.80
2018-08-23T04:22:15.400Z,14.80
2018-08-23T04:27:07.091Z,14.80
2018-08-23T04:31:57.987Z,14.80
2018-08-23T04:36:48.898Z,14.80
2018-08-23T04:41:39.823Z,14.80
2018-08-23T04:46:30.723Z,14.80
2018-08-23T04:51:21.613Z,14.80
2018-08-23T04:56:12.535Z,14.80
2018-08-23T05:01:03.443Z,14.90
2018-08-23T05:05:54.444Z,14.90
2018-08-23T05:10:45.401Z,14.90
2018-08-23T05:15:37.124Z,15.00
2018-08-23T05:20:28.011Z,15.00
2018-08-23T05:25:18.965Z,15.10
2018-08-23T05:30:10.604Z,15.20
2018-08-23T05:35:01.500Z,15.20
2018-08-23T05:39:52.425Z,15.30
2018-08-23T05:44:43.320Z,15.40
2018-08-23T05:49:34.263Z,15.50
2018-08-23T05:54:25.148Z,15.60
2018-08-23T05:59:16.049Z,15.80
2018-08-23T06:04:06.956Z,15.90
2018-08-23T06:08:57.916Z,16.10
2018-08-23T06:13:48.839Z,16.20
2018-08-23T06:18:39.752Z,16.40
2018-08-23T06:23:30.662Z,16.60
2018-08-23T06:28:21.556Z,16.80
2018-08-23T06:33:12.665Z,17.00
2018-08-23T06:38:04.078Z,17.50
2018-08-23T06:42:55.716Z,17.70
2018-08-23T06:47:47.654Z,17.90
2018-08-23T06:52:39.371Z,18.20
2018-08-23T06:57:30.264Z,18.20
2018-08-23T07:02:21.164Z,18.40
2018-08-23T07:07:12.076Z,18.60
2018-08-23T07:12:03.043Z,18.90
2018-08-23T07:16:54.006Z,19.20
2018-08-23T07:21:45.656Z,19.70
2018-08-23T07:26:36.604Z,19.60
2018-08-23T07:31:27.483Z,19.90
2018-08-23T07:36:18.375Z,20.20
2018-08-23T07:41:10.019Z,20.70
2018-08-23T07:46:01.656Z,20.90
2018-08-23T07:50:53.284Z,21.20
2018-08-23T07:55:44.927Z,21.40
2018-08-23T08:00:36.665Z,21.60
2018-08-23T08:05:28.317Z,21.80
2018-08-23T08:10:19.216Z,21.80
2018-08-23T08:15:11.067Z,22.30
2018-08-23T08:20:01.777Z,22.30
2018-08-23T08:24:53.413Z,22.70
2018-08-23T08:29:45.092Z,22.90
2018-08-23T08:34:36.017Z,22.90
2018-08-23T08:39:26.930Z,23.00
2018-08-23T08:44:17.827Z,23.30
2018-08-23T08:49:08.734Z,23.40
2018-08-23T08:53:59.635Z,23.60
2018-08-23T08:58:51.276Z,24.00
2018-08-23T09:03:42.936Z,24.20
2018-08-23T09:08:33.826Z,24.20
2018-08-23T09:13:25.527Z,24.50
2018-08-23T09:18:16.432Z,24.50
2018-08-23T09:23:07.340Z,24.70
2018-08-23T09:27:58.239Z,24.80
2018-08-23T09:32:49.195Z,25.00
2018-08-23T09:37:40.109Z,25.20
2018-08-23T09:42:31.009Z,25.40
2018-08-23T09:47:21.899Z,25.50
2018-08-23T09:52:13.622Z,25.80
2018-08-23T09:57:04.505Z,25.80
2018-08-23T10:07:13.215Z,26.20
2018-08-23T10:17:42.203Z,26.90
2018-08-23T10:22:33.111Z,26.90
2018-08-23T10:27:24.005Z,27.10
2018-08-23T10:32:15.864Z,27.50
2018-08-23T10:37:06.692Z,27.50
2018-08-23T10:41:57.633Z,27.70
2018-08-23T10:46:49.282Z,28.10
2018-08-23T10:51:40.191Z,28.10
2018-08-23T10:56:31.091Z,28.30
2018-08-23T11:01:21.992Z,28.60
2018-08-23T11:06:12.875Z,28.80
2018-08-23T11:16:27.195Z,29.50
2018-08-23T11:21:18.096Z,29.90
2018-08-23T11:26:09.727Z,30.60
2018-08-23T11:31:01.360Z,30.90
2018-08-23T11:35:53.000Z,31.30
2018-08-23T11:40:44.644Z,31.80
2018-08-23T11:45:35.544Z,31.70
2018-08-23T11:50:27.174Z,32.60
2018-08-23T11:55:18.840Z,33.00
2018-08-23T12:00:09.761Z,33.00
2018-08-23T12:05:00.720Z,33.30
2018-08-23T12:09:51.672Z,33.60
2018-08-23T12:14:42.555Z,33.90
2018-08-23T12:19:33.887Z,34.20
2018-08-23T12:24:24.838Z,34.40
2018-08-23T12:29:16.621Z,35.00
2018-08-23T12:34:14.058Z,34.90
2018-08-23T12:39:14.963Z,35.20
2018-08-23T12:44:05.879Z,35.20
2018-08-23T12:48:56.904Z,35.20
2018-08-23T12:53:47.837Z,35.20
2018-08-23T12:58:38.746Z,35.10
2018-08-23T13:03:29.685Z,34.90
2018-08-23T13:08:20.728Z,34.80
2018-08-23T13:13:12.367Z,34.40
2018-08-23T13:18:03.310Z,34.40
2018-08-23T13:22:54.266Z,34.40
2018-08-23T13:27:45.229Z,34.30
2018-08-23T13:32:36.862Z,34.10
2018-08-23T13:37:27.759Z,34.10
2018-08-23T13:42:19.583Z,33.90
2018-08-23T13:47:10.497Z,33.90
2018-08-23T13:52:01.400Z,33.90
2018-08-23T13:56:52.328Z,33.80
2018-08-23T14:01:43.239Z,33.70
2018-08-23T14:06:34.239Z,33.60
2018-08-23T14:11:25.049Z,33.60
2018-08-23T14:16:15.971Z,33.50
2018-08-23T14:21:06.912Z,33.40
2018-08-23T14:25:57.840Z,33.30
2018-08-23T14:30:48.747Z,33.30
2018-08-23T14:35:39.661Z,33.20
2018-08-23T14:40:30.571Z,33.20
2018-08-23T14:45:21.468Z,33.20
2018-08-23T14:50:12.360Z,33.30
2018-08-23T14:55:04.025Z,33.50
2018-08-23T14:59:55.633Z,33.60
2018-08-23T15:04:47.352Z,33.60
2018-08-23T15:09:38.375Z,33.60
2018-08-23T15:14:30.136Z,33.80
2018-08-23T15:19:21.005Z,33.80
2018-08-23T15:24:11.932Z,34.00
2018-08-23T15:29:02.840Z,34.10
2018-08-23T15:33:53.774Z,34.20
2018-08-23T15:38:44.690Z,34.30
2018-08-23T15:43:35.595Z,34.30
2018-08-23T15:48:26.497Z,34.30
2018-08-23T15:53:17.384Z,34.10
2018-08-23T15:58:08.331Z,34.00
2018-08-23T16:02:59.508Z,33.80
2018-08-23T16:07:51.203Z,33.60
2018-08-23T16:12:42.122Z,33.50
2018-08-23T16:17:48.832Z,33.40
2018-08-23T16:22:40.568Z,33.10
2018-08-23T16:27:31.466Z,33.00
2018-08-23T16:32:23.167Z,32.70
2018-08-23T16:37:14.088Z,32.70
2018-08-23T16:42:05.009Z,32.60
2018-08-23T16:46:55.918Z,32.40
2018-08-23T17:13:09.640Z,31.60
2018-08-23T17:18:00.627Z,31.70
2018-08-23T17:22:51.496Z,31.60
2018-08-23T17:27:42.956Z,31.40
2018-08-23T17:32:33.860Z,31.30
2018-08-23T17:37:25.504Z,31.10
2018-08-23T17:42:17.144Z,31.00
2018-08-23T17:47:08.133Z,31.00
2018-08-23T17:51:59.126Z,30.90
2018-08-23T17:56:50.040Z,30.70
2018-08-23T18:01:40.984Z,30.60
2018-08-23T18:06:32.679Z,30.30
2018-08-23T18:11:23.599Z,30.30
2018-08-23T18:16:14.525Z,30.20
2018-08-23T18:21:05.484Z,30.10
2018-08-23T18:25:57.143Z,29.80
2018-08-23T18:30:48.775Z,29.60
2018-08-23T18:35:40.408Z,29.50
2018-08-23T18:40:32.058Z,29.30
2018-08-23T18:45:22.956Z,29.20
2018-08-23T18:50:14.583Z,28.90
2018-08-23T18:55:05.475Z,28.90
2018-08-23T18:59:56.479Z,28.70
2018-08-23T19:04:47.315Z,28.60
2018-08-23T19:09:38.204Z,28.40
2018-08-23T19:14:29.120Z,28.30
2018-08-23T19:19:20.058Z,28.10
2018-08-23T19:24:10.978Z,27.90
2018-08-23T19:29:01.894Z,27.70
2018-08-23T19:33:53.097Z,27.50
2018-08-23T19:38:44.007Z,27.40
2018-08-23T19:43:34.911Z,27.10
2018-08-23T19:48:26.571Z,26.80
2018-08-23T19:53:17.495Z,26.80
2018-08-23T19:58:08.404Z,26.60
2018-08-23T20:02:59.310Z,26.40
2018-08-23T20:07:50.219Z,26.30
2018-08-23T20:12:41.855Z,26.00
2018-08-23T20:17:33.494Z,25.90
2018-08-23T20:22:25.143Z,25.70
2018-08-23T20:27:16.039Z,25.70
2018-08-23T20:32:07.736Z,25.50
2018-08-23T20:36:58.606Z,25.50
2018-08-23T20:41:49.570Z,25.40
2018-08-23T20:46:40.460Z,25.20
2018-08-23T20:51:31.593Z,25.10
2018-08-23T20:56:22.490Z,25.00
2018-08-23T21:01:13.413Z,24.90
2018-08-23T21:06:04.311Z,24.80
2018-08-23T21:10:55.980Z,24.60
2018-08-23T21:15:46.923Z,24.60
2018-08-23T22:04:23.178Z,23.80
2018-08-23T22:09:14.072Z,23.70
2018-08-23T22:14:04.956Z,23.60
2018-08-23T22:18:56.634Z,23.50
2018-08-23T22:23:47.516Z,23.50
2018-08-23T22:28:38.463Z,23.40
2018-08-23T22:33:29.340Z,23.30
2018-08-23T22:38:20.972Z,23.20
2018-08-23T22:43:12.606Z,23.10
2018-08-23T22:48:04.245Z,23.00
2018-08-23T22:52:55.876Z,22.90
2018-08-23T22:57:47.508Z,22.80
2018-08-23T23:02:39.177Z,22.80
2018-08-23T23:07:30.081Z,22.70
2018-08-23T23:22:58.092Z,22.50
2018-08-23T23:27:49.017Z,22.40
2018-08-23T23:32:39.924Z,22.30
2018-08-23T23:37:30.824Z,22.20
2018-08-23T23:42:21.739Z,22.10
2018-08-23T23:47:12.725Z,22.10
2018-08-23T23:52:04.421Z,21.90
2018-08-23T23:56:55.336Z,21.90
